createdAt,value
2018-12-23T00:00:16.645Z,91.10
2018-12-23T00:02:45.908Z,92.30
2018-12-23T00:05:15.128Z,92.90
2018-12-23T00:07:44.333Z,93.40
2018-12-23T00:10:13.988Z,95.20
2018-12-23T00:12:42.968Z,95.90
2018-12-23T00:15:12.009Z,93.60
2018-12-23T00:17:41.070Z,93.80
2018-12-23T00:20:10.605Z,94.50
2018-12-23T00:22:39.924Z,95.20
2018-12-23T00:25:09.212Z,95.90
2018-12-23T00:27:38.480Z,96.70
2018-12-23T00:30:09.053Z,95.80
2018-12-23T00:32:38.101Z,95.30
2018-12-23T00:35:07.377Z,94.00
2018-12-23T00:37:36.544Z,95.50
2018-12-23T00:40:06.430Z,94.60
2018-12-23T00:42:35.600Z,95.70
2018-12-23T00:45:04.923Z,95.00
2018-12-23T00:47:34.096Z,95.10
2018-12-23T00:50:03.747Z,94.80
2018-12-23T00:52:32.900Z,96.50
2018-12-23T00:55:02.152Z,95.80
2018-12-23T00:57:31.392Z,95.60
2018-12-23T01:00:00.754Z,94.60
2018-12-23T01:02:30.015Z,92.50
2018-12-23T01:04:59.086Z,91.20
2018-12-23T01:07:28.239Z,91.10
2018-12-23T01:09:57.380Z,91.80
2018-12-23T01:12:27.033Z,94.10
2018-12-23T01:14:56.204Z,94.80
2018-12-23T01:17:25.319Z,96.20
2018-12-23T01:19:54.840Z,96.20
2018-12-23T01:22:24.595Z,96.60
2018-12-23T01:24:53.679Z,95.90
2018-12-23T01:27:22.929Z,95.90
2018-12-23T01:29:52.087Z,95.10
2018-12-23T01:32:21.225Z,95.00
2018-12-23T01:34:50.295Z,94.00
2018-12-23T01:37:19.517Z,95.20
2018-12-23T01:39:48.839Z,95.50
2018-12-23T01:42:18.131Z,94.80
2018-12-23T01:44:47.860Z,94.10
2018-12-23T01:47:17.132Z,92.90
2018-12-23T01:49:46.171Z,92.80
2018-12-23T01:52:15.326Z,94.30
2018-12-23T01:54:44.360Z,93.40
2018-12-23T01:57:13.610Z,92.20
2018-12-23T01:59:42.646Z,92.20
2018-12-23T02:02:11.688Z,92.10
2018-12-23T02:04:40.747Z,93.30
2018-12-23T02:07:09.894Z,93.50
2018-12-23T02:09:39.057Z,92.30
2018-12-23T02:12:08.328Z,91.40
2018-12-23T02:14:37.372Z,92.50
2018-12-23T02:17:06.583Z,90.70
2018-12-23T02:19:36.128Z,91.40
2018-12-23T02:22:05.363Z,92.20
2018-12-23T02:24:34.565Z,93.20
2018-12-23T02:27:03.849Z,91.50
2018-12-23T02:29:33.173Z,91.80
2018-12-23T02:32:02.276Z,92.90
2018-12-23T02:34:31.344Z,92.10
2018-12-23T02:37:00.464Z,91.60
2018-12-23T02:39:29.648Z,93.80
2018-12-23T02:41:58.722Z,93.80
2018-12-23T02:44:27.956Z,95.60
2018-12-23T02:46:57.000Z,93.90
2018-12-23T03:01:50.211Z,93.90
2018-12-23T03:04:19.360Z,91.60
2018-12-23T03:06:48.811Z,93.00
2018-12-23T03:09:17.847Z,91.50
2018-12-23T03:15:11.867Z,90.40
2018-12-23T03:21:05.446Z,93.30
2018-12-23T03:26:59.625Z,90.90
2018-12-23T03:29:41.002Z,91.90
2018-12-23T03:32:21.013Z,92.00
2018-12-23T03:38:20.029Z,90.70
2018-12-23T03:40:56.848Z,92.00
2018-12-23T03:46:55.656Z,90.30
2018-12-23T03:49:56.705Z,88.60
2018-12-23T03:55:27.177Z,90.00
2018-12-23T03:58:08.333Z,90.20
2018-12-23T04:00:49.976Z,90.60
2018-12-23T04:03:31.129Z,90.30
2018-12-23T04:06:13.015Z,91.10
2018-12-23T04:08:54.549Z,91.70
2018-12-23T04:11:36.142Z,92.20
2018-12-23T04:14:17.312Z,93.90
2018-12-23T04:16:58.323Z,93.50
2018-12-23T04:19:39.667Z,94.70
2018-12-23T04:22:21.561Z,94.60
2018-12-23T04:25:02.799Z,94.10
2018-12-23T04:27:44.313Z,94.20
2018-12-23T04:30:26.185Z,94.10
2018-12-23T04:33:07.369Z,92.10
2018-12-23T04:35:48.616Z,92.00
2018-12-23T04:38:29.807Z,91.90
2018-12-23T04:41:11.432Z,90.60
2018-12-23T04:43:42.513Z,91.30
2018-12-23T04:46:13.048Z,90.40
2018-12-23T04:49:02.093Z,92.20
2018-12-23T04:51:51.173Z,93.00
2018-12-23T04:54:32.509Z,91.90
2018-12-23T04:57:13.857Z,92.20
2018-12-23T04:59:55.166Z,93.40
2018-12-23T05:02:36.250Z,93.30
2018-12-23T05:05:17.489Z,94.40
2018-12-23T05:07:58.827Z,93.90
2018-12-23T05:10:40.592Z,94.50
2018-12-23T05:13:21.937Z,94.50
2018-12-23T05:16:03.604Z,93.30
2018-12-23T05:18:45.470Z,95.30
2018-12-23T05:21:26.589Z,95.90
2018-12-23T05:24:08.098Z,96.60
2018-12-23T05:26:49.481Z,95.50
2018-12-23T05:29:30.889Z,95.30
2018-12-23T05:32:12.139Z,95.10
2018-12-23T05:34:53.310Z,94.70
2018-12-23T05:37:34.302Z,94.10
2018-12-23T05:40:15.629Z,94.50
2018-12-23T05:42:56.656Z,95.60
2018-12-23T05:45:37.810Z,94.90
2018-12-23T05:48:19.330Z,96.00
2018-12-23T05:51:01.027Z,96.50
2018-12-23T05:53:42.259Z,97.70
2018-12-23T05:56:23.634Z,97.10
2018-12-23T05:59:04.753Z,96.40
2018-12-23T06:01:45.846Z,97.50
2018-12-23T06:04:26.961Z,97.60
2018-12-23T06:07:09.040Z,97.90
2018-12-23T06:09:51.039Z,97.10
2018-12-23T06:12:32.334Z,96.60
2018-12-23T06:15:14.211Z,96.50
2018-12-23T06:17:55.317Z,95.00
2018-12-23T06:20:36.360Z,93.80
2018-12-23T06:23:17.274Z,92.50
2018-12-23T06:25:57.480Z,92.10
2018-12-23T06:28:46.517Z,93.10
2018-12-23T06:46:43.449Z,95.20
2018-12-23T06:49:47.167Z,95.20
2018-12-23T06:55:11.182Z,93.70
2018-12-23T06:57:52.357Z,93.90
2018-12-23T07:00:32.565Z,93.30
2018-12-23T07:03:21.676Z,94.30
2018-12-23T07:15:32.544Z,93.70
2018-12-23T07:17:53.225Z,94.70
2018-12-23T07:20:23.817Z,95.70
2018-12-23T07:55:23.489Z,93.50
2018-12-23T07:58:05.360Z,93.40
2018-12-23T08:00:47.106Z,94.20
2018-12-23T08:03:29.100Z,94.20
2018-12-23T08:06:10.750Z,94.20
2018-12-23T08:08:52.344Z,93.10
2018-12-23T08:11:33.472Z,93.70
2018-12-23T08:14:15.232Z,93.80
2018-12-23T08:16:56.525Z,93.40
2018-12-23T08:19:38.452Z,93.20
2018-12-23T08:22:20.171Z,91.90
2018-12-23T08:25:01.982Z,91.60
2018-12-23T08:27:43.068Z,91.20
2018-12-23T08:30:24.446Z,90.80
2018-12-23T08:33:06.358Z,90.80
2018-12-23T08:35:47.626Z,91.20
2018-12-23T08:38:28.723Z,91.30
2018-12-23T08:41:10.519Z,92.30
2018-12-23T08:43:52.492Z,91.20
2018-12-23T08:46:39.157Z,90.70
2018-12-23T08:49:16.385Z,91.40
2018-12-23T08:51:57.724Z,92.60
2018-12-23T08:54:38.786Z,91.20
2018-12-23T08:57:20.034Z,91.00
2018-12-23T09:00:01.407Z,90.30
2018-12-23T09:02:42.473Z,90.10
2018-12-23T09:05:24.368Z,89.90
2018-12-23T09:08:06.325Z,89.40
2018-12-23T09:10:47.654Z,90.90
2018-12-23T09:13:28.857Z,91.90
2018-12-23T09:16:10.285Z,92.50
2018-12-23T09:18:52.085Z,93.10
2018-12-23T09:21:32.277Z,92.90
2018-12-23T09:56:54.092Z,94.10
2018-12-23T09:59:35.121Z,93.00
2018-12-23T10:02:16.189Z,93.30
2018-12-23T10:04:57.993Z,93.10
2018-12-23T10:07:39.435Z,94.40
2018-12-23T10:10:28.149Z,94.60
2018-12-23T10:13:03.981Z,94.40
2018-12-23T10:15:44.993Z,95.00
2018-12-23T10:18:26.057Z,94.70
2018-12-23T10:21:06.104Z,94.20
2018-12-23T10:56:40.683Z,95.10
2018-12-23T10:59:22.073Z,94.60
2018-12-23T11:02:03.381Z,95.00
2018-12-23T11:04:45.073Z,93.70
2018-12-23T11:07:26.311Z,93.60
2018-12-23T11:10:07.860Z,94.40
2018-12-23T11:12:49.278Z,95.30
2018-12-23T11:15:31.266Z,94.60
2018-12-23T11:18:12.580Z,93.20
2018-12-23T11:20:54.022Z,94.30
2018-12-23T11:23:35.048Z,94.50
2018-12-23T11:26:16.313Z,94.70
2018-12-23T11:28:57.340Z,95.90
2018-12-23T11:37:36.493Z,96.20
2018-12-23T11:40:16.611Z,96.10
2018-12-23T11:49:10.942Z,95.30
2018-12-23T11:54:51.980Z,93.60
2018-12-23T11:57:32.137Z,93.70
2018-12-23T12:18:21.801Z,96.30
2018-12-23T12:36:05.149Z,93.70
2018-12-23T12:42:05.253Z,94.30
2018-12-23T12:47:43.623Z,93.50
2018-12-23T12:56:29.175Z,93.20
2018-12-23T13:41:04.330Z,91.20
2018-12-23T13:47:28.461Z,90.60
2018-12-23T13:50:50.561Z,90.40
2018-12-23T13:53:46.054Z,90.10
2018-12-23T13:56:27.888Z,90.00
2018-12-23T13:59:09.017Z,91.40
2018-12-23T14:01:50.098Z,91.00
2018-12-23T14:04:31.117Z,90.60
2018-12-23T14:07:13.033Z,91.70
2018-12-23T14:09:54.361Z,92.10
2018-12-23T14:12:35.541Z,91.70
2018-12-23T14:15:16.821Z,91.70
2018-12-23T14:17:57.993Z,90.80
2018-12-23T14:20:39.682Z,90.60
2018-12-23T14:23:21.053Z,90.30
2018-12-23T14:26:02.777Z,90.60
2018-12-23T14:28:43.832Z,90.80
2018-12-23T14:31:25.216Z,91.20
2018-12-23T14:34:06.899Z,91.70
2018-12-23T14:36:48.841Z,91.50
2018-12-23T14:39:28.937Z,91.30
2018-12-23T14:56:59.468Z,89.90
2018-12-23T14:59:40.721Z,89.50
2018-12-23T15:02:20.970Z,89.60
2018-12-23T15:14:25.157Z,90.10
2018-12-23T15:55:30.947Z,92.50
2018-12-23T15:58:12.115Z,93.20
2018-12-23T16:00:53.225Z,93.40
2018-12-23T16:03:34.503Z,93.20
2018-12-23T16:06:15.883Z,92.60
2018-12-23T16:08:56.965Z,93.70
2018-12-23T16:11:38.069Z,93.40
2018-12-23T16:14:20.013Z,93.20
2018-12-23T16:17:01.153Z,91.50
2018-12-23T16:19:43.125Z,90.40
2018-12-23T16:22:24.223Z,92.60
2018-12-23T16:25:04.395Z,91.90
2018-12-23T16:31:21.891Z,91.00
2018-12-23T16:52:24.654Z,93.00
2018-12-23T16:55:05.818Z,92.10
2018-12-23T16:57:47.380Z,92.20
2018-12-23T17:00:28.437Z,91.00
2018-12-23T17:03:09.636Z,90.50
2018-12-23T17:05:51.149Z,90.60
2018-12-23T17:08:33.017Z,90.70
2018-12-23T17:11:14.075Z,90.50
2018-12-23T17:13:55.449Z,90.60
2018-12-23T17:16:36.612Z,90.70
2018-12-23T17:19:17.620Z,90.60
2018-12-23T17:21:59.522Z,90.70
2018-12-23T17:24:41.289Z,91.20
2018-12-23T17:27:21.431Z,91.40
2018-12-23T17:42:21.596Z,91.50
2018-12-23T17:51:27.750Z,93.10
2018-12-23T17:57:04.487Z,91.60
2018-12-23T17:59:45.861Z,91.10
2018-12-23T18:02:25.939Z,90.20
2018-12-23T18:11:23.804Z,90.00
2018-12-23T18:44:04.867Z,87.20
2018-12-23T18:50:02.040Z,86.90
2018-12-23T18:53:11.825Z,87.10
2018-12-23T18:55:52.753Z,87.30
2018-12-23T18:58:34.725Z,87.20
2018-12-23T19:01:15.809Z,87.00
2018-12-23T19:03:57.281Z,87.00
2018-12-23T19:06:39.204Z,86.90
2018-12-23T19:09:20.318Z,86.80
2018-12-23T19:12:01.701Z,86.60
2018-12-23T19:14:43.461Z,86.70
2018-12-23T19:17:24.570Z,87.00
2018-12-23T19:20:06.421Z,87.10
2018-12-23T19:22:48.220Z,87.40
2018-12-23T19:25:29.417Z,87.70
2018-12-23T19:28:10.550Z,89.40
2018-12-23T19:30:51.745Z,90.40
2018-12-23T19:33:32.746Z,90.80
2018-12-23T19:36:14.115Z,90.50
2018-12-23T19:38:55.889Z,90.00
2018-12-23T19:41:40.380Z,89.50
2018-12-23T19:44:22.305Z,90.00
2018-12-23T19:47:03.497Z,90.10
2018-12-23T19:49:51.332Z,91.10
2018-12-23T19:52:27.458Z,90.80
2018-12-23T19:55:08.534Z,91.40
2018-12-23T19:58:09.417Z,91.70
2018-12-23T20:01:17.294Z,91.60
2018-12-23T20:04:25.204Z,93.70
2018-12-23T20:07:44.967Z,93.00
2018-12-23T20:10:58.791Z,92.30
2018-12-23T20:13:52.418Z,92.80
2018-12-23T20:17:00.278Z,93.90
2018-12-23T20:23:26.734Z,94.70
2018-12-23T20:26:34.599Z,96.00
2018-12-23T20:39:13.767Z,98.40
2018-12-23T20:42:21.644Z,96.80
2018-12-23T20:45:44.351Z,96.70
2018-12-23T20:52:07.624Z,98.90
2018-12-23T20:55:15.517Z,99.90
2018-12-23T20:57:56.817Z,99.40
2018-12-23T21:00:37.937Z,96.70
2018-12-23T21:03:19.741Z,99.40
2018-12-23T21:06:01.161Z,98.30
2018-12-23T21:08:42.355Z,97.90
2018-12-23T21:11:24.309Z,97.20
2018-12-23T21:14:06.148Z,97.90
2018-12-23T21:16:48.041Z,97.50
2018-12-23T21:19:29.745Z,97.70
2018-12-23T21:22:10.919Z,97.60
2018-12-23T21:24:52.762Z,97.60
2018-12-23T21:27:34.623Z,95.90
2018-12-23T21:30:15.981Z,97.10
2018-12-23T21:32:57.428Z,95.40
2018-12-23T21:39:23.435Z,95.30
2018-12-23T21:42:31.324Z,96.30
2018-12-23T21:45:39.186Z,96.80
2018-12-23T21:48:47.938Z,97.50
2018-12-23T21:51:56.621Z,96.60
2018-12-23T21:55:04.494Z,94.30
2018-12-23T21:57:45.560Z,94.90
2018-12-23T22:00:26.691Z,95.20
2018-12-23T22:03:07.961Z,94.00
2018-12-23T22:05:49.108Z,95.20
2018-12-23T22:08:30.112Z,96.20
2018-12-23T22:11:11.736Z,94.70
2018-12-23T22:13:53.562Z,95.00
2018-12-23T22:16:35.113Z,96.80
2018-12-23T22:19:16.705Z,93.70
2018-12-23T22:21:57.985Z,95.90
2018-12-23T22:24:39.697Z,94.40
2018-12-23T22:27:21.689Z,96.30
2018-12-23T22:33:15.260Z,95.30
2018-12-23T22:35:56.567Z,92.30
2018-12-23T22:38:38.276Z,90.50
2018-12-23T22:41:19.356Z,94.90
2018-12-23T22:44:00.614Z,96.00
2018-12-23T22:46:42.420Z,95.00
2018-12-23T23:13:18.493Z,97.10
2018-12-23T23:16:24.613Z,96.50
2018-12-23T23:39:47.700Z,97.40
2018-12-23T23:45:34.115Z,95.30
2018-12-23T23:57:19.625Z,94.90
